New Journey — H8CV — position and weather

sailwx.info

Track history (hours):
 
Tides and Currents Weather Stations Pressure Air Temp Water Temp Dewpoint Dewpoint Depression Visibility Wind Speed Wind Dir Waves Ship Positions

New Journey

Last reported at 2018-Jan-22 13:28 UTC. Time now 2018-Jan-22 13:52 UTC.
Position N 34°50' E 139°50'.

Length 176 m; draft 10.1 m.

Type: Cargo ship. MMSI: 356548000.

Date/timePositionNaut miles runAvg speedWind from/ knotsBaromVisibWave heightAir tempDewpointWater temp
2018-Jan-22 13:28N 34°50' E 139°50'8 9.2
2018-Jan-22 12:34N 34°51' E 139°60'1 9.3
2018-Jan-22 12:30N 34°51' E 140°00'5 9.2
2018-Jan-22 12:00N 34°52' E 140°06'5 9.5
2018-Jan-22 11:27N 34°55' E 140°11'11 9.3
2018-Jan-22 10:14N 35°01' E 140°23'38711.5
2018-Jan-21 00:30N 41°23' E 141°41'713.2
2018-Jan-20 23:59N 41°30' E 141°39'612.8
2018-Jan-20 23:30N 41°35' E 141°36'713.8
2018-Jan-20 23:00N 41°37' E 141°27'612.9
2018-Jan-20 22:31N 41°37' E 141°19'713.0
2018-Jan-20 22:00N 41°37' E 141°10'715.1
2018-Jan-20 21:30N 41°37' E 140°60'715.0
2018-Jan-20 21:00N 41°36' E 140°50'713.8
2018-Jan-20 20:30N 41°32' E 140°42'713.7
2018-Jan-20 20:00N 41°28' E 140°34'713.7
2018-Jan-20 19:30N 41°24' E 140°27'1913.3
2018-Jan-20 18:06N 41°21' E 140°03'212.6
2018-Jan-20 17:56N 41°22' E 140°00'713.3
2018-Jan-20 17:26N 41°26' E 139°54'512.2
2018-Jan-20 17:00N 41°30' E 139°50'911.2
2018-Jan-20 16:15N 41°38' E 139°46'311.8
2018-Jan-20 16:01N 41°41' E 139°45'711.6
2018-Jan-20 15:24N 41°48' E 139°45'511.3
2018-Jan-20 15:00N 41°53' E 139°44'711.6
2018-Jan-20 14:23N 41°60' E 139°43'511.8
2018-Jan-20 13:58N 42°05' E 139°43'712.0
2018-Jan-20 13:25N 42°11' E 139°42'  
Track history (hours):
 
Tides and Currents Weather Stations Pressure Air Temp Water Temp Dewpoint Dewpoint Depression Visibility Wind Speed Wind Dir Waves Ship Positions

New Journey

Last reported at 2018-Jan-22 13:28 UTC. Time now 2018-Jan-22 13:52 UTC.
Position N 34°50' E 139°50'.

Length 176 m; draft 10.1 m.

Type: Cargo ship. MMSI: 356548000.

Date/timePositionNaut miles runAvg speedWind from/ knotsBaromVisibWave heightAir tempDewpointWater temp
2018-Jan-22 13:28N 34°50' E 139°50'8 9.2
2018-Jan-22 12:34N 34°51' E 139°60'1 9.3
2018-Jan-22 12:30N 34°51' E 140°00'5 9.2
2018-Jan-22 12:00N 34°52' E 140°06'5 9.5
2018-Jan-22 11:27N 34°55' E 140°11'11 9.3
2018-Jan-22 10:14N 35°01' E 140°23'38711.5
2018-Jan-21 00:30N 41°23' E 141°41'713.2
2018-Jan-20 23:59N 41°30' E 141°39'612.8
2018-Jan-20 23:30N 41°35' E 141°36'713.8
2018-Jan-20 23:00N 41°37' E 141°27'612.9
2018-Jan-20 22:31N 41°37' E 141°19'713.0
2018-Jan-20 22:00N 41°37' E 141°10'715.1
2018-Jan-20 21:30N 41°37' E 140°60'715.0
2018-Jan-20 21:00N 41°36' E 140°50'713.8
2018-Jan-20 20:30N 41°32' E 140°42'713.7
2018-Jan-20 20:00N 41°28' E 140°34'713.7
2018-Jan-20 19:30N 41°24' E 140°27'1913.3
2018-Jan-20 18:06N 41°21' E 140°03'212.6
2018-Jan-20 17:56N 41°22' E 140°00'713.3
2018-Jan-20 17:26N 41°26' E 139°54'512.2
2018-Jan-20 17:00N 41°30' E 139°50'911.2
2018-Jan-20 16:15N 41°38' E 139°46'311.8
2018-Jan-20 16:01N 41°41' E 139°45'711.6
2018-Jan-20 15:24N 41°48' E 139°45'511.3
2018-Jan-20 15:00N 41°53' E 139°44'711.6
2018-Jan-20 14:23N 41°60' E 139°43'511.8
2018-Jan-20 13:58N 42°05' E 139°43'712.0
2018-Jan-20 13:25N 42°11' E 139°42'  

Dump ship's entire track history